This is the latest recevied weather packets stored in our database for station/object KB3KAV. If no packets are shown the sender has not sent any weather packets the latest 10 day(s).
| Time | Temp. | Humidity | Pressure | Rain* | Wind** | Luminosity | Snow |
|---|---|---|---|---|---|---|---|
| 1788084368 | 12.22° C | 95% | 1051.8 hPa | 0 mm | - | 0 W/m² | - |
| 1788083768 | 12.22° C | 95% | 1051.9 hPa | 0 mm | - | 0 W/m² | - |
| 1788083167 | 12.22° C | 95% | 1051.8 hPa | 0 mm | - | 0 W/m² | - |
| 1788082562 | 12.22° C | 95% | 1051.9 hPa | 0 mm | - | 0 W/m² | - |
| 1788081959 | 12.22° C | 95% | 1051.9 hPa | 0 mm | - | 0 W/m² | - |
| 1788081357 | 12.22° C | 95% | 1051.7 hPa | 0 mm | - | 0 W/m² | - |
| 1788080757 | 12.22° C | 95% | 1051.9 hPa | 0 mm | - | 0 W/m² | - |
| 1788080152 | 12.22° C | 95% | 1052 hPa | 0 mm | - | 0 W/m² | - |
| 1788079550 | 12.78° C | 95% | 1051.9 hPa | 0 mm | - | 0 W/m² | - |
| 1788078945 | 12.78° C | 95% | 1052 hPa | 0 mm | - | 0 W/m² | - |
| 1788078346 | 12.78° C | 95% | 1052 hPa | 0 mm | - | 0 W/m² | - |
| 1788077743 | 12.22° C | 95% | 1052.1 hPa | 0 mm | - | 0 W/m² | - |
| 1788077143 | 12.22° C | 95% | 1052.4 hPa | 0 mm | - | 0 W/m² | - |
| 1788076538 | 12.22° C | 95% | 1052.3 hPa | 0 mm | - | 0 W/m² | - |
| 1788075935 | 12.22° C | 95% | 1052 hPa | 0 mm | - | 0 W/m² | - |
| 1788075332 | 12.22° C | 95% | 1052.3 hPa | 0 mm | - | 0 W/m² | - |
| 1788074728 | 12.22° C | 95% | 1052.4 hPa | 0 mm | - | 0 W/m² | - |
| 1788074124 | 12.22° C | 95% | 1052.3 hPa | 0 mm | - | 0 W/m² | - |
| 1788073522 | 12.22° C | 95% | 1052.2 hPa | 0 mm | - | 0 W/m² | - |
| 1788072921 | 12.22° C | 95% | 1052 hPa | 0 mm | - | 0 W/m² | - |
| 1787921691 | 17.22° C | 95% | 1046.6 hPa | 0 mm | - | 161 W/m² | - |
| 1787921086 | 17.22° C | 95% | 1046.6 hPa | 0 mm | - | 85 W/m² | - |
| 1787920486 | 17.78° C | 95% | 1046.5 hPa | 0 mm | - | 95 W/m² | - |
| 1787919884 | 17.22° C | 95% | 1046.5 hPa | 0 mm | - | 146 W/m² | - |
| 1787919285 | 16.67° C | 95% | 1046.5 hPa | 0 mm | - | 104 W/m² | - |
* Rain latest hour (hover to see other rain measurements)
** Current wind speed in m/s (hover to see current wind gust speed)